createdAt,value
2019-01-13T00:00:25.447Z,1008.90
2019-01-13T00:01:25.597Z,1008.85
2019-01-13T00:02:25.570Z,1008.84
2019-01-13T00:03:25.436Z,1008.83
2019-01-13T00:04:26.338Z,1008.87
2019-01-13T00:05:25.385Z,1008.93
2019-01-13T00:06:25.401Z,1008.83
2019-01-13T00:07:26.657Z,1008.89
2019-01-13T00:08:25.376Z,1008.87
2019-01-13T00:09:25.378Z,1008.87
2019-01-13T00:10:25.331Z,1008.83
2019-01-13T00:11:25.394Z,1008.87
2019-01-13T00:12:25.308Z,1008.81
2019-01-13T00:13:25.325Z,1008.90
2019-01-13T00:14:26.817Z,1008.83
2019-01-13T00:15:25.841Z,1008.81
2019-01-13T00:16:25.265Z,1008.94
2019-01-13T00:17:25.452Z,1008.80
2019-01-13T00:18:25.252Z,1008.80
2019-01-13T00:19:25.255Z,1008.79
2019-01-13T00:20:25.230Z,1008.88
2019-01-13T00:21:25.219Z,1008.76
2019-01-13T00:22:25.271Z,1008.81
2019-01-13T00:23:25.258Z,1008.78
2019-01-13T00:24:25.198Z,1008.79
2019-01-13T00:25:25.167Z,1008.78
2019-01-13T00:26:25.155Z,1008.76
2019-01-13T00:27:25.157Z,1008.74
2019-01-13T00:28:25.134Z,1008.84
2019-01-13T00:29:25.175Z,1008.86
2019-01-13T00:30:25.111Z,1008.91
2019-01-13T00:31:25.103Z,1008.89
2019-01-13T00:32:25.083Z,1008.87
2019-01-13T00:33:25.089Z,1008.84
2019-01-13T00:34:25.116Z,1008.86
2019-01-13T00:35:25.054Z,1008.90
2019-01-13T00:36:25.062Z,1008.84
2019-01-13T00:37:25.046Z,1008.88
2019-01-13T00:38:25.025Z,1008.85
2019-01-13T00:39:25.181Z,1008.88
2019-01-13T00:40:25.051Z,1008.83
2019-01-13T00:41:25.013Z,1008.86
2019-01-13T00:42:25.070Z,1008.91
2019-01-13T00:43:24.987Z,1008.84
2019-01-13T00:44:24.961Z,1008.87
2019-01-13T00:45:24.943Z,1008.89
2019-01-13T00:46:24.946Z,1008.89
2019-01-13T00:47:24.943Z,1008.88
2019-01-13T00:48:24.936Z,1008.87
2019-01-13T00:49:24.905Z,1008.89
2019-01-13T00:50:24.887Z,1008.87
2019-01-13T00:51:24.882Z,1008.83
2019-01-13T00:52:24.925Z,1008.81
2019-01-13T00:53:24.864Z,1008.85
2019-01-13T00:54:24.841Z,1008.83
2019-01-13T00:55:24.956Z,1008.77
2019-01-13T00:56:24.831Z,1008.78
2019-01-13T00:57:24.819Z,1008.73
2019-01-13T00:58:24.882Z,1008.71
2019-01-13T00:59:24.842Z,1008.73
2019-01-13T01:01:05.787Z,1008.69
2019-01-13T01:01:24.871Z,1008.74
2019-01-13T01:02:24.751Z,1008.66
2019-01-13T01:03:24.762Z,1008.62
2019-01-13T01:04:25.355Z,1008.61
2019-01-13T01:05:24.748Z,1008.60
2019-01-13T01:06:24.713Z,1008.62
2019-01-13T01:07:24.699Z,1008.65
2019-01-13T01:08:24.706Z,1008.56
2019-01-13T01:09:24.681Z,1008.58
2019-01-13T01:10:24.722Z,1008.53
2019-01-13T01:11:24.847Z,1008.59
2019-01-13T01:12:24.649Z,1008.62
2019-01-13T01:13:24.644Z,1008.57
2019-01-13T01:14:24.710Z,1008.58
2019-01-13T01:15:24.614Z,1008.59
2019-01-13T01:16:24.640Z,1008.52
2019-01-13T01:17:24.599Z,1008.57
2019-01-13T01:18:24.619Z,1008.54
2019-01-13T01:19:24.625Z,1008.58
2019-01-13T01:20:24.552Z,1008.46
2019-01-13T01:21:24.549Z,1008.44
2019-01-13T01:22:24.580Z,1008.47
2019-01-13T01:23:24.558Z,1008.47
2019-01-13T01:24:24.507Z,1008.44
2019-01-13T01:25:24.514Z,1008.51
2019-01-13T01:26:24.516Z,1008.59
2019-01-13T01:27:24.531Z,1008.69
2019-01-13T01:28:24.505Z,1008.57
2019-01-13T01:29:24.463Z,1008.52
2019-01-13T01:30:24.437Z,1008.56
2019-01-13T01:31:24.429Z,1008.59
2019-01-13T01:32:24.415Z,1008.55
2019-01-13T01:33:26.105Z,1008.58
2019-01-13T01:34:24.418Z,1008.64
2019-01-13T01:35:24.555Z,1008.58
2019-01-13T01:36:24.402Z,1008.57
2019-01-13T01:37:24.371Z,1008.54
2019-01-13T01:38:24.432Z,1008.47
2019-01-13T01:39:24.383Z,1008.50
2019-01-13T01:40:24.351Z,1008.38
2019-01-13T01:41:24.337Z,1008.42
2019-01-13T01:42:24.309Z,1008.37
2019-01-13T01:43:24.310Z,1008.39
2019-01-13T01:44:24.317Z,1008.35
2019-01-13T01:45:24.287Z,1008.32
2019-01-13T01:46:24.308Z,1008.36
2019-01-13T01:47:24.252Z,1008.41
2019-01-13T01:48:24.251Z,1008.37
2019-01-13T01:49:24.237Z,1008.37
2019-01-13T01:50:24.263Z,1008.34
2019-01-13T01:51:24.355Z,1008.31
2019-01-13T01:52:24.201Z,1008.33
2019-01-13T01:53:24.228Z,1008.29
2019-01-13T01:54:24.314Z,1008.27
2019-01-13T01:55:24.211Z,1008.32
2019-01-13T01:56:24.184Z,1008.28
2019-01-13T01:57:24.183Z,1008.29
2019-01-13T01:58:24.128Z,1008.24
2019-01-13T01:59:24.118Z,1008.26
2019-01-13T02:00:24.111Z,1008.22
2019-01-13T02:01:24.144Z,1008.25
2019-01-13T02:02:24.106Z,1008.23
2019-01-13T02:03:24.076Z,1008.25
2019-01-13T02:04:24.133Z,1008.28
2019-01-13T02:05:24.062Z,1008.30
2019-01-13T02:06:24.072Z,1008.30
2019-01-13T02:07:24.877Z,1008.19
2019-01-13T02:08:24.063Z,1008.14
2019-01-13T02:09:24.017Z,1008.04
2019-01-13T02:10:24.011Z,1007.99
2019-01-13T02:11:24.012Z,1007.97
2019-01-13T02:12:23.971Z,1007.91
2019-01-13T02:13:23.979Z,1007.91
2019-01-13T02:14:23.958Z,1007.87
2019-01-13T02:15:24.086Z,1007.84
2019-01-13T02:16:23.936Z,1007.80
2019-01-13T02:17:23.932Z,1007.79
2019-01-13T02:18:23.923Z,1007.78
2019-01-13T02:19:23.936Z,1007.79
2019-01-13T02:20:23.893Z,1007.78
2019-01-13T02:21:23.896Z,1007.76
2019-01-13T02:22:23.873Z,1007.74
2019-01-13T02:23:23.866Z,1007.70
2019-01-13T02:24:23.843Z,1007.77
2019-01-13T02:25:23.846Z,1007.79
2019-01-13T02:26:23.856Z,1007.81
2019-01-13T02:27:23.837Z,1007.87
2019-01-13T02:28:23.795Z,1007.83
2019-01-13T02:29:23.787Z,1007.85
2019-01-13T02:30:23.778Z,1007.84
2019-01-13T02:31:23.789Z,1007.73
2019-01-13T02:32:23.753Z,1007.86
2019-01-13T02:33:23.871Z,1007.73
2019-01-13T02:34:23.753Z,1007.83
2019-01-13T02:35:23.725Z,1007.78
2019-01-13T02:36:23.717Z,1007.73
2019-01-13T02:37:23.744Z,1007.68
2019-01-13T02:38:23.714Z,1007.63
2019-01-13T02:39:23.683Z,1007.62
2019-01-13T02:40:23.708Z,1007.59
2019-01-13T02:41:23.651Z,1007.63
2019-01-13T02:42:23.654Z,1007.67
2019-01-13T02:43:23.628Z,1007.70
2019-01-13T02:44:23.636Z,1007.77
2019-01-13T02:45:23.609Z,1007.78
2019-01-13T02:46:23.597Z,1007.88
2019-01-13T02:47:23.688Z,1007.78
2019-01-13T02:48:23.612Z,1007.80
2019-01-13T02:49:23.567Z,1007.80
2019-01-13T02:50:23.623Z,1007.79
2019-01-13T02:51:23.538Z,1007.84
2019-01-13T02:52:23.532Z,1007.82
2019-01-13T02:53:23.543Z,1007.84
2019-01-13T02:54:23.521Z,1007.98
2019-01-13T02:55:23.500Z,1007.84
2019-01-13T02:56:23.530Z,1007.92
2019-01-13T02:57:23.467Z,1007.87
2019-01-13T02:58:23.455Z,1008.00
2019-01-13T02:59:23.449Z,1007.94
2019-01-13T03:00:23.440Z,1007.93
2019-01-13T03:01:23.452Z,1007.97
2019-01-13T03:02:23.413Z,1007.99
2019-01-13T03:03:23.430Z,1008.00
2019-01-13T03:04:23.398Z,1008.04
2019-01-13T03:05:23.417Z,1007.95
2019-01-13T03:06:23.398Z,1008.00
2019-01-13T03:07:23.401Z,1008.07
2019-01-13T03:08:23.411Z,1008.07
2019-01-13T03:09:23.336Z,1008.09
2019-01-13T03:10:23.331Z,1008.01
2019-01-13T03:11:23.873Z,1008.02
2019-01-13T03:12:23.312Z,1007.94
2019-01-13T03:13:23.340Z,1007.87
2019-01-13T03:14:23.297Z,1008.08
2019-01-13T03:15:23.292Z,1007.95
2019-01-13T03:16:23.273Z,1007.94
2019-01-13T03:17:23.255Z,1007.96
2019-01-13T03:18:23.273Z,1007.91
2019-01-13T03:19:23.239Z,1007.85
2019-01-13T03:20:23.222Z,1007.84
2019-01-13T03:21:23.219Z,1007.75
2019-01-13T03:22:23.209Z,1007.76
2019-01-13T03:23:23.216Z,1007.87
2019-01-13T03:24:23.181Z,1007.88
2019-01-13T03:25:23.155Z,1007.84
2019-01-13T03:26:23.147Z,1007.80
2019-01-13T03:27:23.249Z,1007.80
2019-01-13T03:28:23.126Z,1007.80
2019-01-13T03:29:23.172Z,1007.65
2019-01-13T03:30:23.143Z,1007.70
2019-01-13T03:31:23.128Z,1007.67
2019-01-13T03:32:23.079Z,1007.69
2019-01-13T03:33:23.073Z,1007.63
2019-01-13T03:34:23.076Z,1007.50
2019-01-13T03:35:23.090Z,1007.50
2019-01-13T03:36:23.038Z,1007.36
2019-01-13T03:37:23.061Z,1007.41
2019-01-13T03:38:23.019Z,1007.30
2019-01-13T03:39:23.001Z,1007.29
2019-01-13T03:40:23.008Z,1007.29
2019-01-13T03:41:23.001Z,1007.23
2019-01-13T03:42:23.015Z,1007.23
2019-01-13T03:43:23.026Z,1007.22
2019-01-13T03:44:22.948Z,1007.25
2019-01-13T03:45:22.938Z,1007.15
2019-01-13T03:46:22.971Z,1007.12
2019-01-13T03:47:22.914Z,1007.15
2019-01-13T03:48:22.934Z,1007.14
2019-01-13T03:49:22.896Z,1007.13
2019-01-13T03:50:22.897Z,1007.15
2019-01-13T03:51:22.956Z,1007.07
2019-01-13T03:52:22.865Z,1007.09
2019-01-13T03:53:22.878Z,1007.05
2019-01-13T03:54:22.858Z,1007.11
2019-01-13T03:55:22.835Z,1007.10
2019-01-13T03:56:22.836Z,1007.01
2019-01-13T03:57:22.821Z,1007.02
2019-01-13T03:58:22.826Z,1006.95
2019-01-13T03:59:22.781Z,1006.95
2019-01-13T04:00:22.774Z,1006.85
2019-01-13T04:01:22.808Z,1006.86
2019-01-13T04:02:22.752Z,1006.77
2019-01-13T04:03:22.756Z,1006.78
2019-01-13T04:04:22.724Z,1006.84
2019-01-13T04:05:22.723Z,1006.85
2019-01-13T04:06:22.753Z,1006.84
2019-01-13T04:07:22.694Z,1006.83
2019-01-13T04:08:22.722Z,1006.92
2019-01-13T04:09:22.679Z,1006.85
2019-01-13T04:10:22.688Z,1006.85
2019-01-13T04:11:22.654Z,1006.83
2019-01-13T04:12:22.661Z,1006.78
2019-01-13T04:13:22.718Z,1006.77
2019-01-13T04:14:22.641Z,1006.79
2019-01-13T04:15:22.612Z,1006.69
2019-01-13T04:16:22.593Z,1006.67
2019-01-13T04:17:22.587Z,1006.70
2019-01-13T04:18:22.588Z,1006.61
2019-01-13T04:19:22.567Z,1006.58
2019-01-13T04:20:22.550Z,1006.55
2019-01-13T04:21:22.556Z,1006.55
2019-01-13T04:22:22.531Z,1006.53
2019-01-13T04:23:22.541Z,1006.53
2019-01-13T04:24:22.530Z,1006.53
2019-01-13T04:25:22.496Z,1006.45
2019-01-13T04:26:23.392Z,1006.45
2019-01-13T04:27:22.464Z,1006.41
2019-01-13T04:28:29.732Z,1006.33
2019-01-13T04:29:22.477Z,1006.38
2019-01-13T04:30:22.489Z,1006.36
2019-01-13T04:31:26.862Z,1006.30
2019-01-13T04:32:22.406Z,1006.27
2019-01-13T04:33:22.421Z,1006.38
2019-01-13T04:34:23.404Z,1006.28
2019-01-13T04:35:22.375Z,1006.34
2019-01-13T04:36:22.403Z,1006.30
2019-01-13T04:37:22.382Z,1006.30
2019-01-13T04:38:22.347Z,1006.31
2019-01-13T04:39:22.335Z,1006.33
2019-01-13T04:40:22.375Z,1006.32
2019-01-13T04:41:22.323Z,1006.24
2019-01-13T04:42:22.347Z,1006.14
2019-01-13T04:43:22.292Z,1006.10
2019-01-13T04:44:22.295Z,1006.16
2019-01-13T04:45:22.273Z,1006.05
2019-01-13T04:46:22.271Z,1006.03
2019-01-13T04:47:22.246Z,1006.09
2019-01-13T04:48:22.272Z,1006.03
2019-01-13T04:49:22.229Z,1006.04
2019-01-13T04:50:22.241Z,1005.99
2019-01-13T04:51:22.208Z,1006.05
2019-01-13T04:52:22.200Z,1006.06
2019-01-13T04:53:22.334Z,1006.01
2019-01-13T04:54:22.207Z,1005.89
2019-01-13T04:55:22.179Z,1005.93
2019-01-13T04:56:22.313Z,1005.78
2019-01-13T04:57:22.142Z,1005.75
2019-01-13T04:58:22.155Z,1005.90
2019-01-13T04:59:22.178Z,1005.72
2019-01-13T05:00:22.108Z,1005.68
2019-01-13T05:01:22.085Z,1005.66
2019-01-13T05:02:22.096Z,1005.63
2019-01-13T05:03:22.069Z,1005.62
2019-01-13T05:04:22.052Z,1005.64
2019-01-13T05:05:22.072Z,1005.49
2019-01-13T05:06:22.038Z,1005.54
2019-01-13T05:07:22.040Z,1005.52
2019-01-13T05:08:22.027Z,1005.58
2019-01-13T05:09:22.029Z,1005.63
2019-01-13T05:10:22.050Z,1005.63
2019-01-13T05:11:21.982Z,1005.60
2019-01-13T05:12:22.006Z,1005.54
2019-01-13T05:13:21.964Z,1005.62
2019-01-13T05:14:21.968Z,1005.64
2019-01-13T05:15:21.995Z,1005.50
2019-01-13T05:16:21.956Z,1005.45
2019-01-13T05:17:21.955Z,1005.40
2019-01-13T05:18:21.907Z,1005.26
2019-01-13T05:19:21.899Z,1005.22
2019-01-13T05:20:22.412Z,1005.18
2019-01-13T05:21:21.903Z,1005.14
2019-01-13T05:22:21.878Z,1005.20
2019-01-13T05:23:21.863Z,1005.17
2019-01-13T05:24:21.832Z,1005.15
2019-01-13T05:25:21.870Z,1005.14
2019-01-13T05:26:21.824Z,1005.15
2019-01-13T05:27:21.891Z,1005.04
2019-01-13T05:28:21.835Z,1005.03
2019-01-13T05:29:21.772Z,1005.07
2019-01-13T05:30:22.414Z,1005.11
2019-01-13T05:31:21.776Z,1005.12
2019-01-13T05:32:21.743Z,1005.04
2019-01-13T05:33:21.818Z,1005.08
2019-01-13T05:34:21.760Z,1005.08
2019-01-13T05:35:21.742Z,1005.18
2019-01-13T05:36:21.700Z,1005.06
2019-01-13T05:37:21.711Z,1005.03
2019-01-13T05:38:21.707Z,1005.04
2019-01-13T05:39:21.685Z,1005.02
2019-01-13T05:40:21.666Z,1004.98
2019-01-13T05:41:21.681Z,1004.96
2019-01-13T05:42:21.661Z,1004.86
2019-01-13T05:43:21.626Z,1004.83
2019-01-13T05:44:21.670Z,1004.90
2019-01-13T05:45:21.631Z,1005.00
2019-01-13T05:46:21.728Z,1004.83
2019-01-13T05:47:21.590Z,1004.79
2019-01-13T05:48:21.596Z,1004.80
2019-01-13T05:49:21.569Z,1004.84
2019-01-13T05:50:21.569Z,1004.77
2019-01-13T05:51:21.543Z,1004.85
2019-01-13T05:52:21.522Z,1004.89
2019-01-13T05:53:21.540Z,1004.86
2019-01-13T05:54:21.529Z,1004.92
2019-01-13T05:55:21.520Z,1004.92
2019-01-13T05:56:21.482Z,1004.92
2019-01-13T05:57:21.486Z,1004.92
2019-01-13T05:58:21.462Z,1004.88
2019-01-13T05:59:21.441Z,1004.90
2019-01-13T06:00:21.442Z,1004.92
2019-01-13T06:01:21.449Z,1004.95
2019-01-13T06:02:21.611Z,1004.91
2019-01-13T06:03:21.396Z,1004.91
2019-01-13T06:04:21.399Z,1004.81
2019-01-13T06:05:21.421Z,1004.93
2019-01-13T06:06:21.382Z,1004.93
2019-01-13T06:07:21.359Z,1004.88
2019-01-13T06:08:21.345Z,1004.92
2019-01-13T06:09:21.337Z,1004.90
2019-01-13T06:10:21.346Z,1004.89
2019-01-13T06:11:21.341Z,1004.90
2019-01-13T06:12:21.304Z,1004.86
2019-01-13T06:13:21.298Z,1004.82
2019-01-13T06:14:21.280Z,1004.87
2019-01-13T06:15:21.300Z,1004.77
2019-01-13T06:16:21.268Z,1004.78
2019-01-13T06:17:21.263Z,1004.86
2019-01-13T06:18:21.284Z,1004.83
2019-01-13T06:19:21.274Z,1004.90
2019-01-13T06:20:21.213Z,1004.83
2019-01-13T06:21:21.202Z,1004.82
2019-01-13T06:22:21.193Z,1004.75
2019-01-13T06:23:21.177Z,1004.71
2019-01-13T06:24:21.204Z,1004.74
2019-01-13T06:25:21.191Z,1004.72
2019-01-13T06:26:21.318Z,1004.71
2019-01-13T06:27:21.209Z,1004.69
2019-01-13T06:28:21.115Z,1004.73
2019-01-13T06:29:21.190Z,1004.68
2019-01-13T06:30:21.122Z,1004.67
2019-01-13T06:31:21.139Z,1004.70
2019-01-13T06:32:21.075Z,1004.67
2019-01-13T06:33:21.085Z,1004.63
2019-01-13T06:34:21.058Z,1004.63
2019-01-13T06:35:21.044Z,1004.65
2019-01-13T06:36:21.069Z,1004.58
2019-01-13T06:37:21.024Z,1004.63
2019-01-13T06:38:21.022Z,1004.65
2019-01-13T06:39:21.003Z,1004.54
2019-01-13T06:40:21.016Z,1004.54
2019-01-13T06:41:20.983Z,1004.59
2019-01-13T06:42:20.992Z,1004.54
2019-01-13T06:43:20.963Z,1004.51
2019-01-13T06:44:20.958Z,1004.56
2019-01-13T06:45:21.925Z,1004.55
2019-01-13T06:46:20.928Z,1004.53
2019-01-13T06:47:20.915Z,1004.54
2019-01-13T06:48:20.968Z,1004.56
2019-01-13T06:49:20.896Z,1004.54
2019-01-13T06:50:20.905Z,1004.55
2019-01-13T06:51:20.866Z,1004.46
2019-01-13T06:52:20.865Z,1004.49
2019-01-13T06:53:20.850Z,1004.54
2019-01-13T06:54:20.862Z,1004.55
2019-01-13T06:55:20.820Z,1004.52
2019-01-13T06:56:20.812Z,1004.52
2019-01-13T06:57:20.801Z,1004.49
2019-01-13T06:58:20.792Z,1004.49
2019-01-13T06:59:20.815Z,1004.42
2019-01-13T07:00:20.809Z,1004.38
2019-01-13T07:01:20.755Z,1004.43
2019-01-13T07:02:20.753Z,1004.38
2019-01-13T07:03:20.730Z,1004.39
2019-01-13T07:04:20.721Z,1004.41
2019-01-13T07:05:20.744Z,1004.37
2019-01-13T07:06:20.738Z,1004.34
2019-01-13T07:07:20.706Z,1004.34
2019-01-13T07:08:20.683Z,1004.31
2019-01-13T07:09:20.682Z,1004.40
2019-01-13T07:10:20.652Z,1004.26
2019-01-13T07:11:20.672Z,1004.26
2019-01-13T07:12:20.742Z,1004.27
2019-01-13T07:13:20.627Z,1004.26
2019-01-13T07:14:20.620Z,1004.28
2019-01-13T07:15:20.614Z,1004.33
2019-01-13T07:16:20.592Z,1004.28
2019-01-13T07:17:20.585Z,1004.34
2019-01-13T07:18:20.605Z,1004.20
2019-01-13T07:19:20.564Z,1004.23
2019-01-13T07:20:20.569Z,1004.18
2019-01-13T07:21:20.529Z,1004.22
2019-01-13T07:22:20.521Z,1004.19
2019-01-13T07:23:20.549Z,1004.14
2019-01-13T07:24:20.498Z,1004.18
2019-01-13T07:25:20.501Z,1004.17
2019-01-13T07:26:20.494Z,1004.23
2019-01-13T07:27:20.468Z,1004.15
2019-01-13T07:28:20.657Z,1004.13
2019-01-13T07:29:20.477Z,1004.07
2019-01-13T07:30:22.174Z,1004.06
2019-01-13T07:31:20.500Z,1004.09
2019-01-13T07:32:20.436Z,1004.06
2019-01-13T07:33:20.417Z,1004.04
2019-01-13T07:34:20.422Z,1004.06
2019-01-13T07:35:20.385Z,1004.04
2019-01-13T07:36:20.397Z,1003.97
2019-01-13T07:37:20.356Z,1003.98
2019-01-13T07:38:20.361Z,1003.97
2019-01-13T07:39:20.342Z,1003.90
2019-01-13T07:40:20.335Z,1003.96
2019-01-13T07:41:20.359Z,1004.02
2019-01-13T07:42:20.359Z,1003.89
2019-01-13T07:43:20.287Z,1003.91
2019-01-13T07:44:20.276Z,1003.95
2019-01-13T07:45:20.297Z,1003.91
2019-01-13T07:46:20.253Z,1003.94
2019-01-13T07:47:20.284Z,1003.96
2019-01-13T07:48:20.232Z,1003.86
2019-01-13T07:49:20.217Z,1003.87
2019-01-13T07:50:20.211Z,1003.92
2019-01-13T07:51:20.238Z,1003.86
2019-01-13T07:52:20.227Z,1003.91
2019-01-13T07:53:20.206Z,1003.89
2019-01-13T07:54:20.170Z,1003.73
2019-01-13T07:55:20.194Z,1003.83
2019-01-13T07:56:20.151Z,1003.84
2019-01-13T07:57:20.139Z,1003.86
2019-01-13T07:58:20.154Z,1003.87
2019-01-13T07:59:20.187Z,1003.84
2019-01-13T08:00:20.101Z,1003.85
2019-01-13T08:01:20.105Z,1003.83
2019-01-13T08:02:20.080Z,1003.95
2019-01-13T08:03:20.118Z,1003.82
2019-01-13T08:04:20.057Z,1003.85
2019-01-13T08:05:20.109Z,1003.82
2019-01-13T08:06:20.041Z,1003.80
2019-01-13T08:07:20.027Z,1003.79
2019-01-13T08:08:20.942Z,1003.75
2019-01-13T08:09:20.010Z,1003.76
2019-01-13T08:10:20.010Z,1003.81
2019-01-13T08:11:20.122Z,1003.77
2019-01-13T08:12:20.858Z,1003.79
2019-01-13T08:13:19.986Z,1003.79
2019-01-13T08:14:20.938Z,1003.77
2019-01-13T08:15:19.958Z,1003.76
2019-01-13T08:16:19.914Z,1003.75
2019-01-13T08:17:19.913Z,1003.71
2019-01-13T08:18:19.893Z,1003.68
2019-01-13T08:19:19.894Z,1003.68
2019-01-13T08:20:19.909Z,1003.62
2019-01-13T08:21:19.873Z,1003.69
2019-01-13T08:22:19.848Z,1003.66
2019-01-13T08:23:19.843Z,1003.71
2019-01-13T08:24:19.997Z,1003.74
2019-01-13T08:25:19.823Z,1003.78
2019-01-13T08:26:19.825Z,1003.72
2019-01-13T08:27:19.808Z,1003.72
2019-01-13T08:28:19.787Z,1003.75
2019-01-13T08:29:19.808Z,1003.71
2019-01-13T08:30:19.760Z,1003.65
2019-01-13T08:31:19.762Z,1003.74
2019-01-13T08:32:24.989Z,1003.74
2019-01-13T08:33:20.769Z,1003.78
2019-01-13T08:34:19.717Z,1003.74
2019-01-13T08:35:19.720Z,1003.70
2019-01-13T08:36:19.744Z,1003.73
2019-01-13T08:37:19.682Z,1003.69
2019-01-13T08:38:19.676Z,1003.65
2019-01-13T08:39:19.666Z,1003.54
2019-01-13T08:40:19.654Z,1003.63
2019-01-13T08:41:19.634Z,1003.58
2019-01-13T08:42:19.652Z,1003.59
2019-01-13T08:43:19.631Z,1003.59
2019-01-13T08:44:19.604Z,1003.64
2019-01-13T08:45:19.597Z,1003.62
2019-01-13T08:46:19.581Z,1003.64
2019-01-13T08:47:19.571Z,1003.56
2019-01-13T08:48:19.640Z,1003.58
2019-01-13T08:49:19.552Z,1003.56
2019-01-13T08:50:19.546Z,1003.55
2019-01-13T08:51:19.685Z,1003.50
2019-01-13T08:52:19.523Z,1003.55
2019-01-13T08:53:19.506Z,1003.62
2019-01-13T08:54:19.583Z,1003.48
2019-01-13T08:55:19.520Z,1003.47
2019-01-13T08:56:19.471Z,1003.47
2019-01-13T08:57:19.462Z,1003.42
2019-01-13T08:58:19.462Z,1003.43
2019-01-13T08:59:19.473Z,1003.46
2019-01-13T09:00:19.449Z,1003.41
2019-01-13T09:01:19.442Z,1003.50
2019-01-13T09:02:19.402Z,1003.53
2019-01-13T09:03:19.397Z,1003.38
2019-01-13T09:04:19.379Z,1003.40
2019-01-13T09:05:19.391Z,1003.40
2019-01-13T09:06:19.388Z,1003.51
2019-01-13T09:07:19.414Z,1003.28
2019-01-13T09:08:19.342Z,1003.32
2019-01-13T09:09:19.377Z,1003.27
2019-01-13T09:10:19.325Z,1003.24
2019-01-13T09:11:19.317Z,1003.24
2019-01-13T09:12:19.313Z,1003.30
2019-01-13T09:13:19.282Z,1003.22
2019-01-13T09:14:19.303Z,1003.28
2019-01-13T09:15:19.370Z,1003.19
2019-01-13T09:16:19.252Z,1003.17
2019-01-13T09:17:19.235Z,1003.14
2019-01-13T09:18:19.300Z,1003.19
2019-01-13T09:19:19.232Z,1003.20
2019-01-13T09:20:19.202Z,1003.12
2019-01-13T09:21:19.199Z,1003.22
2019-01-13T09:22:19.207Z,1003.24
2019-01-13T09:23:19.198Z,1003.27
2019-01-13T09:24:19.178Z,1003.19
2019-01-13T09:25:19.151Z,1003.10
2019-01-13T09:26:19.142Z,1003.11
2019-01-13T09:27:19.153Z,1003.14
2019-01-13T09:28:19.127Z,1003.05
2019-01-13T09:29:19.103Z,1002.97
2019-01-13T09:30:19.094Z,1003.07
2019-01-13T09:31:19.082Z,1003.12
2019-01-13T09:32:19.067Z,1003.02
2019-01-13T09:33:19.091Z,1002.99
2019-01-13T09:34:19.098Z,1003.08
2019-01-13T09:35:19.034Z,1002.98
2019-01-13T09:36:19.021Z,1002.98
2019-01-13T09:37:19.024Z,1003.01
2019-01-13T09:38:19.006Z,1003.06
2019-01-13T09:39:19.072Z,1003.01
2019-01-13T09:40:19.002Z,1003.10
2019-01-13T09:41:18.965Z,1002.98
2019-01-13T09:42:18.980Z,1003.11
2019-01-13T09:43:18.946Z,1003.09
2019-01-13T09:44:18.951Z,1002.96
2019-01-13T09:45:18.961Z,1002.99
2019-01-13T09:46:18.910Z,1003.02
2019-01-13T09:47:18.903Z,1002.96
2019-01-13T09:48:18.951Z,1003.01
2019-01-13T09:49:18.882Z,1003.06
2019-01-13T09:50:18.976Z,1002.95
2019-01-13T09:51:18.911Z,1002.95
2019-01-13T09:52:18.850Z,1002.91
2019-01-13T09:53:18.835Z,1002.94
2019-01-13T09:54:18.833Z,1002.83
2019-01-13T09:55:18.830Z,1002.77
2019-01-13T09:56:18.848Z,1002.77
2019-01-13T09:57:18.798Z,1002.85
2019-01-13T09:58:18.838Z,1002.81
2019-01-13T09:59:18.828Z,1002.77
2019-01-13T10:00:18.779Z,1002.73
2019-01-13T10:01:18.854Z,1002.71
2019-01-13T10:02:18.772Z,1002.72
2019-01-13T10:03:18.746Z,1002.66
2019-01-13T10:04:18.714Z,1002.59
2019-01-13T10:05:18.706Z,1002.55
2019-01-13T10:06:18.695Z,1002.58
2019-01-13T10:07:18.716Z,1002.56
2019-01-13T10:08:18.698Z,1002.52
2019-01-13T10:09:18.658Z,1002.57
2019-01-13T10:10:18.655Z,1002.55
2019-01-13T10:11:18.646Z,1002.68
2019-01-13T10:12:18.626Z,1002.73
2019-01-13T10:13:18.649Z,1002.72
2019-01-13T10:14:18.621Z,1002.79
2019-01-13T10:15:18.607Z,1002.79
2019-01-13T10:16:18.581Z,1002.79
2019-01-13T10:17:18.633Z,1002.75
2019-01-13T10:18:18.573Z,1002.80
2019-01-13T10:19:18.551Z,1002.85
2019-01-13T10:20:18.580Z,1002.78
2019-01-13T10:21:18.553Z,1002.75
2019-01-13T10:22:18.514Z,1002.77
2019-01-13T10:23:18.503Z,1002.79
2019-01-13T10:24:18.517Z,1002.78
2019-01-13T10:25:18.507Z,1002.72
2019-01-13T10:26:18.499Z,1002.74
2019-01-13T10:27:18.461Z,1002.67
2019-01-13T10:28:18.449Z,1002.62
2019-01-13T10:29:18.433Z,1002.56
2019-01-13T10:30:18.434Z,1002.60
2019-01-13T10:31:18.460Z,1002.67
2019-01-13T10:32:18.401Z,1002.63
2019-01-13T10:33:18.434Z,1002.59
2019-01-13T10:34:18.383Z,1002.66
2019-01-13T10:35:18.399Z,1002.43
2019-01-13T10:36:18.358Z,1002.57
2019-01-13T10:37:18.386Z,1002.49
2019-01-13T10:38:18.331Z,1002.52
2019-01-13T10:39:18.327Z,1002.41
2019-01-13T10:40:18.397Z,1002.43
2019-01-13T10:41:18.340Z,1002.38
2019-01-13T10:42:18.291Z,1002.33
2019-01-13T10:43:18.277Z,1002.31
2019-01-13T10:44:18.329Z,1002.20
2019-01-13T10:45:18.263Z,1002.18
2019-01-13T10:46:18.245Z,1002.07
2019-01-13T10:47:18.256Z,1002.08
2019-01-13T10:48:18.226Z,1002.08
2019-01-13T10:49:18.234Z,1002.16
2019-01-13T10:50:18.208Z,1002.06
2019-01-13T10:51:18.190Z,1002.18
2019-01-13T10:52:18.175Z,1002.12
2019-01-13T10:53:18.180Z,1002.08
2019-01-13T10:54:18.180Z,1002.08
2019-01-13T10:55:18.168Z,1002.01
2019-01-13T10:56:18.132Z,1002.07
2019-01-13T10:57:18.229Z,1001.98
2019-01-13T10:58:18.112Z,1001.97
2019-01-13T10:59:18.980Z,1001.92
2019-01-13T11:00:18.122Z,1001.98
2019-01-13T11:01:18.086Z,1001.90
2019-01-13T11:02:18.061Z,1001.94
2019-01-13T11:03:18.088Z,1001.90
2019-01-13T11:04:18.044Z,1001.93
2019-01-13T11:05:18.035Z,1001.98
2019-01-13T11:06:18.018Z,1001.93
2019-01-13T11:07:18.015Z,1001.92
2019-01-13T11:08:18.029Z,1001.92
2019-01-13T11:09:17.990Z,1001.93
2019-01-13T11:10:17.979Z,1001.92
2019-01-13T11:11:18.007Z,1001.80
2019-01-13T11:12:17.965Z,1001.89
2019-01-13T11:13:17.995Z,1001.83
2019-01-13T11:14:17.928Z,1001.92
2019-01-13T11:15:21.763Z,1001.73
2019-01-13T11:16:17.983Z,1001.70
2019-01-13T11:17:17.924Z,1001.72
2019-01-13T11:18:17.883Z,1001.74
2019-01-13T11:19:17.884Z,1001.70
2019-01-13T11:20:17.858Z,1001.64
2019-01-13T11:21:17.880Z,1001.67
2019-01-13T11:22:17.840Z,1001.71
2019-01-13T11:23:17.831Z,1001.56
2019-01-13T11:24:17.820Z,1001.63
2019-01-13T11:25:17.820Z,1001.55
2019-01-13T11:26:17.817Z,1001.62
2019-01-13T11:27:17.789Z,1001.50
2019-01-13T11:28:17.813Z,1001.50
2019-01-13T11:29:17.780Z,1001.56
2019-01-13T11:30:17.778Z,1001.55
2019-01-13T11:31:17.761Z,1001.53
2019-01-13T11:32:17.728Z,1001.46
2019-01-13T11:33:17.736Z,1001.38
2019-01-13T11:34:17.719Z,1001.49
2019-01-13T11:35:17.719Z,1001.49
2019-01-13T11:36:17.693Z,1001.45
2019-01-13T11:37:17.679Z,1001.38
2019-01-13T11:38:17.671Z,1001.43
2019-01-13T11:39:17.652Z,1001.48
2019-01-13T11:40:17.840Z,1001.45
2019-01-13T11:41:17.653Z,1001.41
2019-01-13T11:42:17.629Z,1001.36
2019-01-13T11:43:17.654Z,1001.31
2019-01-13T11:44:17.594Z,1001.28
2019-01-13T11:45:17.580Z,1001.27
2019-01-13T11:46:17.579Z,1001.24
2019-01-13T11:47:17.608Z,1001.31
2019-01-13T11:48:17.561Z,1001.13
2019-01-13T11:49:17.561Z,1001.20
2019-01-13T11:50:17.534Z,1001.14
2019-01-13T11:51:17.519Z,1001.17
2019-01-13T11:52:17.541Z,1001.20
2019-01-13T11:53:17.498Z,1001.21
2019-01-13T11:54:17.504Z,1001.12
2019-01-13T11:55:17.473Z,1001.17
2019-01-13T11:56:17.544Z,1001.02
2019-01-13T11:57:17.466Z,1001.01
2019-01-13T11:58:17.473Z,1001.04
2019-01-13T11:59:17.504Z,1001.06
2019-01-13T12:00:17.430Z,1001.07
2019-01-13T12:01:17.401Z,1001.04
2019-01-13T12:02:17.395Z,1001.05
2019-01-13T12:03:17.418Z,1001.04
2019-01-13T12:04:17.388Z,1000.88
2019-01-13T12:05:17.365Z,1000.82